Flight Track Log - Related Links

Times and Time Zones

All times are in EDT time to prevent confusion due to time zone crossing. See the SWA864 flight status page for this flight to view local times or setup timezone preferences in your user account.

Time Position Orientation Groundspeed Altitude Reporting Facility
EDT Latitude Longitude Course Direction KTS MPH feet Rate Location/Type
Sat 07:43:20 PM 34.1656 -118.4450 277° West 230 265 5,400  Level Los Angeles Center
Sat 07:44:21 PM 34.2536 -118.5006 332° Northwest 295 339 8,700 3,512 Climbing Los Angeles Center
Sat 07:45:23 PM 34.3317 -118.5517 332° Northwest 316 364 12,600 2,903 Climbing Los Angeles Center
Sat 07:46:25 PM 34.4114 -118.6042 331° Northwest 325 374 14,700 2,488 Climbing Los Angeles Center
Sat 07:47:00 PM 34.5910 -118.7455 338° Northwest  Level FlightAware Approximate
Sat 07:47:26 PM 34.4944 -118.6569 332° Northwest 338 389 17,700  Level Los Angeles Center
Sat 07:48:28 PM 34.5833 -118.7172 331° Northwest 366 421 20,800 2,371 Climbing Los Angeles Center
Sat 07:49:30 PM 34.6800 -118.7814 331° Northwest 403 464 22,600 2,000 Climbing Los Angeles Center
Sat 07:50:31 PM 34.7847 -118.8514 331° Northwest 424 488 24,900 2,488 Climbing Los Angeles Center
Sat 07:51:33 PM 34.9042 -118.9619 323° Northwest 459 528 27,700 2,371 Climbing Los Angeles Center
Sat 07:52:35 PM 35.0061 -119.0603 322° Northwest 469 540 29,800 2,146 Climbing Los Angeles Center
Sat 07:53:36 PM 35.1100 -119.1617 321° Northwest 478 550 32,100 2,098 Climbing Los Angeles Center
Sat 07:54:38 PM 35.2142 -119.2639 321° Northwest 482 555 34,100 1,839 Climbing Los Angeles Center
Sat 07:55:40 PM 35.3178 -119.3631 322° Northwest 478 550 35,900 919 Climbing Los Angeles Center
Sat 07:56:42 PM 35.4222 -119.4647 322° Northwest 480 552 36,000 49 Climbing Los Angeles Center
Sat 07:57:43 PM 35.5433 -119.5853 321° Northwest 473 544 36,000  Level Los Angeles Center
Sat 07:58:31 PM 35.6192 -119.6628 320° Northwest 470 541 36,000  Level Oakland Center
Sat 07:59:32 PM 35.7194 -119.7622 321° Northwest 468 539 36,000  Level Oakland Center
Sat 07:59:47 PM 35.7403 -119.7836 320° Northwest 463 533 36,000 -78 Level Los Angeles Center
Sat 08:00:49 PM 35.8400 -119.8853 320° Northwest 467 537 35,900 -56 Descending Los Angeles Center
Sat 08:01:34 PM 35.9189 -119.9636 321° Northwest 468 539 35,900  Level Oakland Center
Sat 08:02:35 PM 36.0178 -120.0631 321° Northwest 463 533 35,900  Level Oakland Center
Sat 08:03:36 PM 36.1169 -120.1647 320° Northwest 465 535 35,900  Level Oakland Center
Sat 08:04:37 PM 36.2161 -120.2644 321° Northwest 462 532 35,900 -344 Level Oakland Center
Sat 08:05:38 PM 36.3156 -120.3678 320° Northwest 467 537 35,200 -1,770 Descending Oakland Center
Sat 08:06:39 PM 36.4153 -120.4694 321° Northwest 466 536 32,300 -2,508 Descending Oakland Center
Sat 08:07:40 PM 36.5314 -120.5933 319° Northwest 462 532 30,100 -2,066 Descending Oakland Center
Sat 08:08:41 PM 36.6242 -120.6833 322° Northwest 431 496 28,100 -2,016 Descending Oakland Center
Sat 08:09:42 PM 36.7133 -120.7764 320° Northwest 422 486 26,000 -2,016 Descending Oakland Center
Sat 08:10:43 PM 36.7983 -120.8700 319° Northwest 408 470 24,000 -1,869 Descending Oakland Center
Sat 08:11:44 PM 36.8769 -120.9619 317° Northwest 402 463 22,200 -1,967 Descending Oakland Center
Sat 08:12:45 PM 36.9544 -121.0517 317° Northwest 383 441 20,000 -2,311 Descending Oakland Center
Sat 08:13:46 PM 37.0336 -121.1439 317° Northwest 387 445 17,500 -2,213 Descending Oakland Center
Sat 08:14:47 PM 37.1111 -121.2303 318° Northwest 372 428 15,500 -2,262 Descending Oakland Center
Sat 08:15:48 PM 37.1844 -121.3158 317° Northwest 361 415 12,900 -2,361 Descending Oakland Center
Sat 08:16:49 PM 37.2583 -121.4008 318° Northwest 358 412 10,700 -1,426 Descending Oakland Center
Sat 08:17:50 PM 37.3269 -121.4819 317° Northwest 342 394 10,000 -1,140 Descending Oakland Center
Sat 08:18:50 PM 37.3964 -121.5639 317° Northwest 303 349 8,400 -1,587 Descending Oakland Center
Sat 08:19:51 PM 37.4547 -121.6328 317° Northwest 290 334 6,800 -1,181 Descending Oakland Center
Sat 08:20:57 PM 37.5000 -121.7333 300° West 282 325 5,900 -381 Descending Northern Cal TRACON
Sat 08:21:57 PM 37.5333 -121.8167 297° West 283 326 6,000 -700 Climbing Northern Cal TRACON
Sat 08:22:57 PM 37.5500 -121.9167 282° West 278 320 4,500 -1,100 Descending Northern Cal TRACON
Sat 08:23:57 PM 37.5833 -122.0000 297° West 254 292 3,800 -895 Descending Northern Cal TRACON
Sat 08:24:51 PM 37.6167 -122.0667 302° West 228 262 2,800 -1,050 Descending Northern Cal TRACON
Sat 08:25:57 PM 37.6333 -122.1167 293° West 178 205 1,700 -850 Descending Northern Cal TRACON
Sat 08:26:51 PM 37.6667 -122.1667 310° West 138 159 1,100 -684 Descending Northern Cal TRACON
Sat 08:27:51 PM 37.6833 -122.2000 302° West 129 148 400 -700 Descending Northern Cal TRACON
Sat 08:30:00 PM 37.7167 -122.2167 270° West  Level FlightAware Approximate

Login

Don't have an account? Register now (free) for customized features, flight alerts, and more!